Time,TemperatureF,DewpointF,PressureIn,WindDirection,WindDirectionDegrees,WindSpeedMPH,WindSpeedGustMPH,Humidity,HourlyPrecipIn,Conditions,Clouds,dailyrainin,SolarRadiationWatts/m^2,SoftwareType,DateUTC
2013-05-25 00:01:00,39.3,22.2,29.86,WNW,288,9.0,12.0,50,0.00,,,0.00,0,WeatherCatV1.15B25,2013-05-25 07:01:00,
2013-05-25 00:06:00,39.3,22.7,29.86,WNW,293,17.0,18.0,51,0.00,,,0.00,0,WeatherCatV1.15B25,2013-05-25 07:06:00,
2013-05-25 00:11:00,39.6,23.4,29.86,WNW,302,14.0,18.0,52,0.00,,,0.00,0,WeatherCatV1.15B25,2013-05-25 07:11:00,
2013-05-25 00:16:00,39.8,23.6,29.83,WSW,244,13.0,17.0,52,0.00,,,0.00,0,WeatherCatV1.15B25,2013-05-25 07:16:00,
2013-05-25 00:21:00,39.9,24.6,29.83,NW,316,15.0,17.0,54,0.00,,,0.00,0,WeatherCatV1.15B25,2013-05-25 07:21:00,
2013-05-25 00:26:00,39.9,25.1,29.83,WNW,293,13.0,17.0,55,0.00,,,0.00,0,WeatherCatV1.15B25,2013-05-25 07:26:00,
2013-05-25 00:31:00,39.9,25.1,29.82,WNW,303,11.0,19.0,55,0.00,,,0.00,0,WeatherCatV1.15B25,2013-05-25 07:31:00,
2013-05-25 00:36:00,40.1,25.7,29.82,WNW,283,13.0,17.0,56,0.00,,,0.00,0,WeatherCatV1.15B25,2013-05-25 07:36:00,
2013-05-25 00:41:00,40.2,25.8,29.82,NNW,327,15.0,23.0,56,0.00,,,0.00,0,WeatherCatV1.15B25,2013-05-25 07:41:00,
2013-05-25 00:46:00,40.2,25.8,29.82,WNW,288,16.0,22.0,56,0.00,,,0.00,0,WeatherCatV1.15B25,2013-05-25 07:46:00,
2013-05-25 00:51:00,40.1,26.1,29.82,NW,304,15.0,19.0,57,0.00,,,0.00,0,WeatherCatV1.15B25,2013-05-25 07:51:00,
2013-05-25 00:56:00,39.9,25.9,29.82,North,10,12.0,20.0,57,0.00,,,0.00,0,WeatherCatV1.15B25,2013-05-25 07:56:00,
2013-05-25 01:01:00,39.8,26.2,29.83,WNW,288,14.0,21.0,58,0.00,,,0.00,0,WeatherCatV1.15B25,2013-05-25 08:01:00,
2013-05-25 01:06:00,39.6,26.1,29.83,WNW,293,16.0,18.0,58,0.00,,,0.00,0,WeatherCatV1.15B25,2013-05-25 08:06:00,
2013-05-25 01:11:00,39.6,26.1,29.83,WNW,301,11.0,18.0,58,0.00,,,0.00,0,WeatherCatV1.15B25,2013-05-25 08:11:00,
2013-05-25 01:16:00,39.5,26.0,29.83,WNW,293,7.0,15.0,58,0.00,,,0.00,0,WeatherCatV1.15B25,2013-05-25 08:16:00,
2013-05-25 01:21:00,39.3,25.4,29.83,NW,307,9.0,13.0,57,0.00,,,0.00,0,WeatherCatV1.15B25,2013-05-25 08:21:00,
2013-05-25 01:26:00,39.2,25.7,29.83,NNW,333,7.0,12.0,58,0.00,,,0.00,0,WeatherCatV1.15B25,2013-05-25 08:26:00,
2013-05-25 01:31:00,39.2,25.7,29.83,NNW,344,10.0,15.0,58,0.00,,,0.00,0,WeatherCatV1.15B25,2013-05-25 08:31:00,
2013-05-25 01:36:00,39.1,25.6,29.83,WNW,293,6.0,12.0,58,0.00,,,0.00,0,WeatherCatV1.15B25,2013-05-25 08:36:00,
2013-05-25 01:41:00,39.1,25.6,29.83,NW,324,5.0,12.0,58,0.00,,,0.00,0,WeatherCatV1.15B25,2013-05-25 08:41:00,
2013-05-25 01:46:00,38.9,25.4,29.83,NW,310,4.0,8.0,58,0.00,,,0.00,0,WeatherCatV1.15B25,2013-05-25 08:46:00,
2013-05-25 01:51:00,38.9,25.4,29.83,NNW,346,6.0,11.0,58,0.00,,,0.00,0,WeatherCatV1.15B25,2013-05-25 08:51:00,
2013-05-25 01:56:00,38.9,25.4,29.83,WNW,288,9.0,12.0,58,0.00,,,0.00,0,WeatherCatV1.15B25,2013-05-25 08:56:00,
2013-05-25 02:01:00,38.9,25.4,29.83,WNW,300,3.0,7.0,58,0.00,,,0.00,0,WeatherCatV1.15B25,2013-05-25 09:01:00,
2013-05-25 02:06:00,38.8,25.3,29.83,NNW,327,3.0,5.0,58,0.00,,,0.00,0,WeatherCatV1.15B25,2013-05-25 09:06:00,
2013-05-25 02:11:00,38.6,25.1,29.83,NW,324,2.0,6.0,58,0.00,,,0.00,0,WeatherCatV1.15B25,2013-05-25 09:11:00,
2013-05-25 02:16:00,38.5,25.0,29.82,NW,311,3.0,7.0,58,0.00,,,0.00,0,WeatherCatV1.15B25,2013-05-25 09:16:00,
2013-05-25 02:21:00,38.3,24.8,29.82,WNW,302,6.0,7.0,58,0.00,,,0.00,0,WeatherCatV1.15B25,2013-05-25 09:21:00,
2013-05-25 02:26:00,38.3,24.4,29.82,West,274,0.0,5.0,57,0.00,,,0.00,0,WeatherCatV1.15B25,2013-05-25 09:26:00,
2013-05-25 02:31:00,38.3,24.4,29.83,WNW,288,2.0,4.0,57,0.00,,,0.00,0,WeatherCatV1.15B25,2013-05-25 09:31:00,
2013-05-25 02:36:00,38.3,24.4,29.83,WNW,288,2.0,5.0,57,0.00,,,0.00,0,WeatherCatV1.15B25,2013-05-25 09:36:00,
2013-05-25 02:41:00,38.2,24.3,29.83,West,266,1.0,6.0,57,0.00,,,0.00,0,WeatherCatV1.15B25,2013-05-25 09:41:00,
2013-05-25 02:46:00,38.0,24.1,29.82,WNW,283,3.0,4.0,57,0.00,,,0.00,0,WeatherCatV1.15B25,2013-05-25 09:46:00,
2013-05-25 02:51:00,37.9,24.0,29.82,WNW,283,3.0,3.0,57,0.00,,,0.00,0,WeatherCatV1.15B25,2013-05-25 09:51:00,
2013-05-25 02:56:00,37.9,24.0,29.82,WSW,258,0.0,3.0,57,0.00,,,0.00,0,WeatherCatV1.15B25,2013-05-25 09:56:00,
2013-05-25 03:01:00,37.8,24.0,29.82,WSW,258,0.0,0.0,57,0.00,,,0.00,0,WeatherCatV1.15B25,2013-05-25 10:01:00,
2013-05-25 03:06:00,37.8,23.5,29.82,West,266,2.0,3.0,56,0.00,,,0.00,0,WeatherCatV1.15B25,2013-05-25 10:06:00,
2013-05-25 03:11:00,37.6,22.9,29.82,West,267,1.0,3.0,55,0.00,,,0.00,0,WeatherCatV1.15B25,2013-05-25 10:11:00,
2013-05-25 03:16:00,37.6,22.5,29.82,WNW,283,3.0,4.0,54,0.00,,,0.00,0,WeatherCatV1.15B25,2013-05-25 10:16:00,
2013-05-25 03:21:00,37.6,21.6,29.82,WNW,288,0.0,2.0,52,0.00,,,0.00,0,WeatherCatV1.15B25,2013-05-25 10:21:00,
2013-05-25 03:26:00,37.8,21.8,29.82,WNW,288,2.0,3.0,52,0.00,,,0.00,0,WeatherCatV1.15B25,2013-05-25 10:26:00,
2013-05-25 03:31:00,37.8,21.3,29.82,WNW,288,0.0,0.0,51,0.00,,,0.00,0,WeatherCatV1.15B25,2013-05-25 10:31:00,
2013-05-25 03:36:00,37.8,21.3,29.82,WNW,288,0.0,0.0,51,0.00,,,0.00,0,WeatherCatV1.15B25,2013-05-25 10:36:00,
2013-05-25 03:41:00,37.6,20.7,29.82,WNW,288,0.0,0.0,50,0.00,,,0.00,0,WeatherCatV1.15B25,2013-05-25 10:41:00,
2013-05-25 03:46:00,37.6,20.7,29.82,WNW,288,0.0,0.0,50,0.00,,,0.00,0,WeatherCatV1.15B25,2013-05-25 10:46:00,
2013-05-25 03:51:00,37.5,20.1,29.82,WNW,288,0.0,2.0,49,0.00,,,0.00,0,WeatherCatV1.15B25,2013-05-25 10:51:00,
2013-05-25 03:56:00,37.5,19.6,29.82,WNW,288,2.0,2.0,48,0.00,,,0.00,0,WeatherCatV1.15B25,2013-05-25 10:56:00,
2013-05-25 04:01:00,37.3,18.9,29.82,NW,309,0.0,0.0,47,0.00,,,0.00,0,WeatherCatV1.15B25,2013-05-25 11:01:00,
2013-05-25 04:06:00,37.3,18.9,29.82,NW,309,2.0,3.0,47,0.00,,,0.00,0,WeatherCatV1.15B25,2013-05-25 11:06:00,
2013-05-25 04:11:00,37.3,18.4,29.82,NW,309,2.0,4.0,46,0.00,,,0.00,0,WeatherCatV1.15B25,2013-05-25 11:11:00,
2013-05-25 04:16:00,37.5,18.6,29.84,NW,310,5.0,5.0,46,0.00,,,0.00,0,WeatherCatV1.15B25,2013-05-25 11:16:00,
2013-05-25 04:21:00,37.3,18.4,29.84,WNW,297,5.0,6.0,46,0.00,,,0.00,0,WeatherCatV1.15B25,2013-05-25 11:21:00,
2013-05-25 04:26:00,37.3,17.9,29.84,WNW,300,1.0,4.0,45,0.00,,,0.00,0,WeatherCatV1.15B25,2013-05-25 11:26:00,
2013-05-25 04:31:00,37.3,17.9,29.84,NW,314,2.0,4.0,45,0.00,,,0.00,0,WeatherCatV1.15B25,2013-05-25 11:31:00,
2013-05-25 04:36:00,37.3,17.9,29.84,NW,314,4.0,5.0,45,0.00,,,0.00,0,WeatherCatV1.15B25,2013-05-25 11:36:00,
2013-05-25 04:41:00,37.3,17.9,29.84,NW,315,4.0,9.0,45,0.00,,,0.00,0,WeatherCatV1.15B25,2013-05-25 11:41:00,
2013-05-25 04:46:00,37.3,17.4,29.84,NW,305,5.0,6.0,44,0.00,,,0.00,0,WeatherCatV1.15B25,2013-05-25 11:46:00,
2013-05-25 04:51:00,37.5,16.0,29.84,WNW,293,1.0,6.0,41,0.00,,,0.00,0,WeatherCatV1.15B25,2013-05-25 11:51:00,
2013-05-25 04:56:00,37.5,16.0,29.84,WNW,298,0.0,4.0,41,0.00,,,0.00,0,WeatherCatV1.15B25,2013-05-25 11:56:00,
2013-05-25 05:01:00,37.5,14.8,29.85,WNW,293,5.0,6.0,39,0.00,,,0.00,0,WeatherCatV1.15B25,2013-05-25 12:01:00,
2013-05-25 05:06:00,37.6,14.9,29.85,WNW,293,4.0,7.0,39,0.00,,,0.00,0,WeatherCatV1.15B25,2013-05-25 12:06:00,
2013-05-25 05:11:00,37.8,13.9,29.85,WNW,301,5.0,6.0,37,0.00,,,0.00,0,WeatherCatV1.15B25,2013-05-25 12:11:00,
2013-05-25 05:16:00,37.9,14.0,29.86,WNW,293,3.0,7.0,37,0.00,,,0.00,0,WeatherCatV1.15B25,2013-05-25 12:16:00,
2013-05-25 05:21:00,37.9,14.0,29.86,WNW,303,6.0,7.0,37,0.00,,,0.00,0,WeatherCatV1.15B25,2013-05-25 12:21:00,
2013-05-25 05:26:00,37.9,12.7,29.86,NW,307,4.0,6.0,35,0.00,,,0.00,0,WeatherCatV1.15B25,2013-05-25 12:26:00,
2013-05-25 05:31:00,38.0,13.4,29.87,WNW,297,5.0,7.0,36,0.00,,,0.00,0,WeatherCatV1.15B25,2013-05-25 12:31:00,
2013-05-25 05:36:00,38.0,13.4,29.87,WNW,293,2.0,6.0,36,0.00,,,0.00,0,WeatherCatV1.15B25,2013-05-25 12:36:00,
2013-05-25 05:41:00,38.0,12.8,29.87,WNW,293,5.0,6.0,35,0.00,,,0.00,5,WeatherCatV1.15B25,2013-05-25 12:41:00,
2013-05-25 05:46:00,38.2,13.0,29.87,WNW,299,3.0,7.0,35,0.00,,,0.00,7,WeatherCatV1.15B25,2013-05-25 12:46:00,
2013-05-25 05:51:00,38.2,12.3,29.87,WNW,288,4.0,9.0,34,0.00,,,0.00,11,WeatherCatV1.15B25,2013-05-25 12:51:00,
2013-05-25 05:56:00,38.3,11.1,29.87,WNW,297,5.0,9.0,32,0.00,,,0.00,14,WeatherCatV1.15B25,2013-05-25 12:56:00,
2013-05-25 06:01:00,38.5,11.2,29.87,WNW,283,4.0,7.0,32,0.00,,,0.00,18,WeatherCatV1.15B25,2013-05-25 13:01:00,
2013-05-25 06:06:00,38.5,11.9,29.87,NW,313,7.0,7.0,33,0.00,,,0.00,19,WeatherCatV1.15B25,2013-05-25 13:06:00,
2013-05-25 06:11:00,38.5,11.9,29.87,NW,308,2.0,6.0,33,0.00,,,0.00,25,WeatherCatV1.15B25,2013-05-25 13:11:00,
2013-05-25 06:16:00,38.5,11.2,29.89,NW,314,4.0,7.0,32,0.00,,,0.00,39,WeatherCatV1.15B25,2013-05-25 13:16:00,
2013-05-25 06:21:00,38.6,10.6,29.89,North,355,5.0,11.0,31,0.00,,,0.00,47,WeatherCatV1.15B25,2013-05-25 13:21:00,
2013-05-25 06:26:00,38.8,10.8,29.89,NW,316,1.0,6.0,31,0.00,,,0.00,60,WeatherCatV1.15B25,2013-05-25 13:26:00,
2013-05-25 06:31:00,38.9,10.9,29.89,NW,318,5.0,7.0,31,0.00,,,0.00,72,WeatherCatV1.15B25,2013-05-25 13:31:00,
2013-05-25 06:36:00,39.1,11.0,29.89,NNW,348,6.0,11.0,31,0.00,,,0.00,86,WeatherCatV1.15B25,2013-05-25 13:36:00,
2013-05-25 06:41:00,39.2,11.1,29.89,NNW,339,2.0,5.0,31,0.00,,,0.00,97,WeatherCatV1.15B25,2013-05-25 13:41:00,
2013-05-25 06:46:00,39.3,10.5,29.89,NNW,345,9.0,12.0,30,0.00,,,0.00,111,WeatherCatV1.15B25,2013-05-25 13:46:00,
2013-05-25 06:51:00,39.6,10.8,29.89,NW,314,4.0,6.0,30,0.00,,,0.00,127,WeatherCatV1.15B25,2013-05-25 13:51:00,
2013-05-25 06:56:00,39.8,10.2,29.89,NNW,343,2.0,7.0,29,0.00,,,0.00,142,WeatherCatV1.15B25,2013-05-25 13:56:00,
2013-05-25 07:01:00,39.9,9.5,29.88,NNW,338,4.0,9.0,28,0.00,,,0.00,158,WeatherCatV1.15B25,2013-05-25 14:01:00,
2013-05-25 07:06:00,40.2,9.7,29.88,North,359,2.0,6.0,28,0.00,,,0.00,172,WeatherCatV1.15B25,2013-05-25 14:06:00,
2013-05-25 07:11:00,40.3,9.8,29.88,NNW,342,5.0,6.0,28,0.00,,,0.00,190,WeatherCatV1.15B25,2013-05-25 14:11:00,
2013-05-25 07:16:00,40.5,9.2,29.91,NW,310,5.0,8.0,27,0.00,,,0.00,202,WeatherCatV1.15B25,2013-05-25 14:16:00,
2013-05-25 07:21:00,40.6,9.3,29.91,NNW,343,5.0,7.0,27,0.00,,,0.00,213,WeatherCatV1.15B25,2013-05-25 14:21:00,
2013-05-25 07:26:00,40.9,9.5,29.91,NNW,344,7.0,7.0,27,0.00,,,0.00,216,WeatherCatV1.15B25,2013-05-25 14:26:00,
2013-05-25 07:31:00,41.1,10.5,29.91,NW,324,3.0,9.0,28,0.00,,,0.00,255,WeatherCatV1.15B25,2013-05-25 14:31:00,
2013-05-25 07:36:00,41.2,9.8,29.91,NW,322,3.0,10.0,27,0.00,,,0.00,269,WeatherCatV1.15B25,2013-05-25 14:36:00,
2013-05-25 07:41:00,41.3,10.7,29.91,NW,326,3.0,3.0,28,0.00,,,0.00,276,WeatherCatV1.15B25,2013-05-25 14:41:00,
2013-05-25 07:46:00,41.5,10.0,29.92,NNW,336,6.0,7.0,27,0.00,,,0.00,299,WeatherCatV1.15B25,2013-05-25 14:46:00,
2013-05-25 07:51:00,41.8,9.5,29.92,NW,309,5.0,7.0,26,0.00,,,0.00,313,WeatherCatV1.15B25,2013-05-25 14:51:00,
2013-05-25 07:56:00,42.1,8.8,29.92,NW,310,4.0,10.0,25,0.00,,,0.00,323,WeatherCatV1.15B25,2013-05-25 14:56:00,
2013-05-25 08:01:00,42.3,9.0,29.92,NNW,338,5.0,5.0,25,0.00,,,0.00,338,WeatherCatV1.15B25,2013-05-25 15:01:00,
2013-05-25 08:06:00,42.5,9.2,29.92,NNW,347,3.0,5.0,25,0.00,,,0.00,359,WeatherCatV1.15B25,2013-05-25 15:06:00,
2013-05-25 08:11:00,42.8,9.4,29.92,WNW,293,5.0,7.0,25,0.00,,,0.00,376,WeatherCatV1.15B25,2013-05-25 15:11:00,
2013-05-25 08:16:00,42.9,8.6,29.94,WNW,283,6.0,9.0,24,0.00,,,0.00,406,WeatherCatV1.15B25,2013-05-25 15:16:00,
2013-05-25 08:21:00,43.1,8.8,29.94,West,278,4.0,9.0,24,0.00,,,0.00,404,WeatherCatV1.15B25,2013-05-25 15:21:00,
2013-05-25 08:26:00,43.3,8.0,29.94,NW,310,4.0,7.0,23,0.00,,,0.00,425,WeatherCatV1.15B25,2013-05-25 15:26:00,
2013-05-25 08:31:00,43.6,8.3,29.93,WNW,288,7.0,12.0,23,0.00,,,0.00,425,WeatherCatV1.15B25,2013-05-25 15:31:00,
2013-05-25 08:36:00,43.6,9.2,29.93,NW,319,9.0,12.0,24,0.00,,,0.00,454,WeatherCatV1.15B25,2013-05-25 15:36:00,
2013-05-25 08:41:00,43.8,10.3,29.93,WNW,299,9.0,9.0,25,0.00,,,0.00,404,WeatherCatV1.15B25,2013-05-25 15:41:00,
2013-05-25 08:46:00,43.9,9.5,29.93,WNW,297,12.0,13.0,24,0.00,,,0.00,362,WeatherCatV1.15B25,2013-05-25 15:46:00,
2013-05-25 08:51:00,44.1,9.6,29.93,NW,316,5.0,9.0,24,0.00,,,0.00,478,WeatherCatV1.15B25,2013-05-25 15:51:00,
2013-05-25 08:56:00,44.2,9.7,29.93,NW,307,3.0,10.0,24,0.00,,,0.00,497,WeatherCatV1.15B25,2013-05-25 15:56:00,
2013-05-25 09:01:00,44.3,10.7,29.93,West,260,6.0,9.0,25,0.00,,,0.00,543,WeatherCatV1.15B25,2013-05-25 16:01:00,
2013-05-25 09:06:00,44.6,11.9,29.93,WNW,303,3.0,6.0,26,0.00,,,0.00,534,WeatherCatV1.15B25,2013-05-25 16:06:00,
2013-05-25 09:11:00,45.1,11.4,29.93,WNW,302,4.0,6.0,25,0.00,,,0.00,531,WeatherCatV1.15B25,2013-05-25 16:11:00,
2013-05-25 09:16:00,45.4,11.7,29.94,WNW,288,7.0,8.0,25,0.00,,,0.00,529,WeatherCatV1.15B25,2013-05-25 16:16:00,
2013-05-25 09:21:00,45.7,11.0,29.94,NW,304,3.0,9.0,24,0.00,,,0.00,570,WeatherCatV1.15B25,2013-05-25 16:21:00,
2013-05-25 09:26:00,46.0,13.1,29.94,WNW,293,5.0,6.0,26,0.00,,,0.00,533,WeatherCatV1.15B25,2013-05-25 16:26:00,
2013-05-25 09:31:00,46.2,12.3,29.93,NW,304,10.0,11.0,25,0.00,,,0.00,612,WeatherCatV1.15B25,2013-05-25 16:31:00,
2013-05-25 09:36:00,46.4,12.5,29.93,WSW,241,3.0,7.0,25,0.00,,,0.00,636,WeatherCatV1.15B25,2013-05-25 16:36:00,
2013-05-25 09:41:00,46.5,10.7,29.93,West,270,6.0,11.0,23,0.00,,,0.00,643,WeatherCatV1.15B25,2013-05-25 16:41:00,
2013-05-25 09:46:00,46.7,11.9,29.93,WNW,283,9.0,12.0,24,0.00,,,0.00,650,WeatherCatV1.15B25,2013-05-25 16:46:00,
2013-05-25 09:51:00,46.8,11.9,29.93,West,269,5.0,13.0,24,0.00,,,0.00,605,WeatherCatV1.15B25,2013-05-25 16:51:00,
2013-05-25 09:56:00,47.0,11.1,29.93,West,272,5.0,12.0,23,0.00,,,0.00,700,WeatherCatV1.15B25,2013-05-25 16:56:00,
2013-05-25 10:01:00,46.8,13.7,29.93,WNW,288,2.0,2.0,26,0.00,,,0.00,626,WeatherCatV1.15B25,2013-05-25 17:01:00,
2013-05-25 10:06:00,47.3,13.3,29.93,NNW,329,0.0,3.0,25,0.00,,,0.00,719,WeatherCatV1.15B25,2013-05-25 17:06:00,
2013-05-25 10:11:00,47.7,12.7,29.93,WSW,254,2.0,8.0,24,0.00,,,0.00,635,WeatherCatV1.15B25,2013-05-25 17:11:00,
2013-05-25 10:16:00,47.7,11.7,29.93,WNW,299,5.0,11.0,23,0.00,,,0.00,580,WeatherCatV1.15B25,2013-05-25 17:16:00,
2013-05-25 10:21:00,47.6,13.5,29.93,NW,315,13.0,13.0,25,0.00,,,0.00,772,WeatherCatV1.15B25,2013-05-25 17:21:00,
2013-05-25 10:26:00,47.6,14.4,29.93,WNW,283,10.0,13.0,26,0.00,,,0.00,729,WeatherCatV1.15B25,2013-05-25 17:26:00,
2013-05-25 10:31:00,47.7,13.6,29.94,West,277,6.0,13.0,25,0.00,,,0.00,756,WeatherCatV1.15B25,2013-05-25 17:31:00,
2013-05-25 10:36:00,48.0,13.9,29.94,WNW,299,5.0,12.0,25,0.00,,,0.00,775,WeatherCatV1.15B25,2013-05-25 17:36:00,
2013-05-25 10:41:00,48.3,14.1,29.94,WNW,288,6.0,12.0,25,0.00,,,0.00,789,WeatherCatV1.15B25,2013-05-25 17:41:00,
2013-05-25 10:46:00,48.5,15.2,29.92,West,271,10.0,11.0,26,0.00,,,0.00,816,WeatherCatV1.15B25,2013-05-25 17:46:00,
2013-05-25 10:51:00,48.6,14.4,29.92,WNW,303,12.0,14.0,25,0.00,,,0.00,833,WeatherCatV1.15B25,2013-05-25 17:51:00,
2013-05-25 10:56:00,48.8,15.5,29.92,West,273,6.0,10.0,26,0.00,,,0.00,840,WeatherCatV1.15B25,2013-05-25 17:56:00,
2013-05-25 11:01:00,48.6,13.5,29.92,WNW,293,10.0,17.0,24,0.00,,,0.00,853,WeatherCatV1.15B25,2013-05-25 18:01:00,
2013-05-25 11:06:00,48.6,14.4,29.92,NW,307,12.0,14.0,25,0.00,,,0.00,865,WeatherCatV1.15B25,2013-05-25 18:06:00,
2013-05-25 11:11:00,48.6,13.5,29.92,WNW,301,12.0,19.0,24,0.00,,,0.00,875,WeatherCatV1.15B25,2013-05-25 18:11:00,
2013-05-25 11:16:00,48.6,14.4,29.93,WNW,293,11.0,13.0,25,0.00,,,0.00,879,WeatherCatV1.15B25,2013-05-25 18:16:00,
2013-05-25 11:21:00,48.8,13.6,29.93,NW,304,9.0,9.0,24,0.00,,,0.00,889,WeatherCatV1.15B25,2013-05-25 18:21:00,
2013-05-25 11:26:00,48.9,14.6,29.93,NW,315,15.0,18.0,25,0.00,,,0.00,898,WeatherCatV1.15B25,2013-05-25 18:26:00,
2013-05-25 11:31:00,48.9,13.7,29.93,WNW,288,7.0,12.0,24,0.00,,,0.00,904,WeatherCatV1.15B25,2013-05-25 18:31:00,
2013-05-25 11:36:00,49.2,14.0,29.93,NW,312,11.0,23.0,24,0.00,,,0.00,911,WeatherCatV1.15B25,2013-05-25 18:36:00,
2013-05-25 11:41:00,49.2,14.0,29.93,WNW,299,11.0,20.0,24,0.00,,,0.00,919,WeatherCatV1.15B25,2013-05-25 18:41:00,
2013-05-25 11:46:00,49.4,15.1,29.93,WNW,293,14.0,15.0,25,0.00,,,0.00,926,WeatherCatV1.15B25,2013-05-25 18:46:00,
2013-05-25 11:51:00,49.5,14.2,29.93,West,272,5.0,14.0,24,0.00,,,0.00,932,WeatherCatV1.15B25,2013-05-25 18:51:00,
2013-05-25 11:56:00,49.9,15.5,29.93,WNW,283,4.0,15.0,25,0.00,,,0.00,939,WeatherCatV1.15B25,2013-05-25 18:56:00,
2013-05-25 12:01:00,50.4,15.9,29.92,WNW,288,6.0,14.0,25,0.00,,,0.00,939,WeatherCatV1.15B25,2013-05-25 19:01:00,
2013-05-25 12:06:00,50.7,17.1,29.92,WNW,283,20.0,20.0,26,0.00,,,0.00,951,WeatherCatV1.15B25,2013-05-25 19:06:00,
2013-05-25 12:11:00,50.7,17.1,29.92,NW,305,10.0,17.0,26,0.00,,,0.00,954,WeatherCatV1.15B25,2013-05-25 19:11:00,
2013-05-25 12:16:00,50.1,16.6,29.91,WNW,299,3.0,13.0,26,0.00,,,0.00,960,WeatherCatV1.15B25,2013-05-25 19:16:00,
2013-05-25 12:21:00,50.1,17.4,29.91,WNW,298,12.0,15.0,27,0.00,,,0.00,963,WeatherCatV1.15B25,2013-05-25 19:21:00,
2013-05-25 12:26:00,51.0,17.3,29.91,WNW,297,16.0,16.0,26,0.00,,,0.00,965,WeatherCatV1.15B25,2013-05-25 19:26:00,
2013-05-25 12:31:00,51.7,18.8,29.91,WNW,288,5.0,11.0,27,0.00,,,0.00,970,WeatherCatV1.15B25,2013-05-25 19:31:00,
2013-05-25 12:36:00,52.2,18.4,29.91,NW,310,6.0,20.0,26,0.00,,,0.00,974,WeatherCatV1.15B25,2013-05-25 19:36:00,
2013-05-25 12:41:00,52.0,17.3,29.91,WNW,288,10.0,19.0,25,0.00,,,0.00,974,WeatherCatV1.15B25,2013-05-25 19:41:00,
2013-05-25 12:46:00,51.7,17.9,29.89,West,262,12.0,19.0,26,0.00,,,0.00,977,WeatherCatV1.15B25,2013-05-25 19:46:00,
2013-05-25 12:51:00,51.9,19.0,29.89,NW,309,5.0,12.0,27,0.00,,,0.00,977,WeatherCatV1.15B25,2013-05-25 19:51:00,
2013-05-25 12:56:00,52.3,18.5,29.89,NW,307,17.0,18.0,26,0.00,,,0.00,981,WeatherCatV1.15B25,2013-05-25 19:56:00,
2013-05-25 13:01:00,51.7,17.9,29.89,WNW,283,17.0,22.0,26,0.00,,,0.00,979,WeatherCatV1.15B25,2013-05-25 20:01:00,
2013-05-25 13:06:00,51.6,18.7,29.89,WNW,288,12.0,19.0,27,0.00,,,0.00,981,WeatherCatV1.15B25,2013-05-25 20:06:00,
2013-05-25 13:11:00,52.0,19.1,29.89,WNW,288,15.0,16.0,27,0.00,,,0.00,988,WeatherCatV1.15B25,2013-05-25 20:11:00,
2013-05-25 13:16:00,52.2,19.2,29.91,NW,311,10.0,13.0,27,0.00,,,0.00,981,WeatherCatV1.15B25,2013-05-25 20:16:00,
2013-05-25 13:21:00,52.2,19.2,29.91,WSW,249,11.0,19.0,27,0.00,,,0.00,979,WeatherCatV1.15B25,2013-05-25 20:21:00,
2013-05-25 13:26:00,52.0,19.1,29.91,NNW,341,5.0,21.0,27,0.00,,,0.00,976,WeatherCatV1.15B25,2013-05-25 20:26:00,
2013-05-25 13:31:00,52.0,19.1,29.90,NW,315,15.0,18.0,27,0.00,,,0.00,977,WeatherCatV1.15B25,2013-05-25 20:31:00,
2013-05-25 13:36:00,52.3,20.2,29.90,WNW,297,13.0,15.0,28,0.00,,,0.00,970,WeatherCatV1.15B25,2013-05-25 20:36:00,
2013-05-25 13:41:00,52.6,19.6,29.90,WNW,288,17.0,24.0,27,0.00,,,0.00,967,WeatherCatV1.15B25,2013-05-25 20:41:00,
2013-05-25 13:46:00,52.5,20.4,29.89,WNW,283,17.0,21.0,28,0.00,,,0.00,962,WeatherCatV1.15B25,2013-05-25 20:46:00,
2013-05-25 13:51:00,52.3,19.3,29.89,NW,319,15.0,24.0,27,0.00,,,0.00,963,WeatherCatV1.15B25,2013-05-25 20:51:00,
2013-05-25 13:56:00,52.2,21.7,29.89,NW,305,14.0,18.0,30,0.00,,,0.00,969,WeatherCatV1.15B25,2013-05-25 20:56:00,
2013-05-25 14:01:00,52.5,20.4,29.90,WSW,256,12.0,19.0,28,0.00,,,0.00,963,WeatherCatV1.15B25,2013-05-25 21:01:00,
2013-05-25 14:06:00,52.6,20.4,29.90,WNW,303,19.0,19.0,28,0.00,,,0.00,951,WeatherCatV1.15B25,2013-05-25 21:06:00,
2013-05-25 14:11:00,52.6,21.3,29.90,WNW,301,9.0,18.0,29,0.00,,,0.00,944,WeatherCatV1.15B25,2013-05-25 21:11:00,
2013-05-25 14:16:00,52.5,20.4,29.90,NNW,342,9.0,23.0,28,0.00,,,0.00,939,WeatherCatV1.15B25,2013-05-25 21:16:00,
2013-05-25 14:21:00,52.9,21.5,29.90,West,279,14.0,24.0,29,0.00,,,0.00,935,WeatherCatV1.15B25,2013-05-25 21:21:00,
2013-05-25 14:26:00,52.6,22.1,29.90,West,278,13.0,27.0,30,0.00,,,0.00,928,WeatherCatV1.15B25,2013-05-25 21:26:00,
2013-05-25 14:31:00,52.2,22.5,29.90,NW,312,19.0,23.0,31,0.00,,,0.00,919,WeatherCatV1.15B25,2013-05-25 21:31:00,
2013-05-25 14:36:00,52.2,24.0,29.90,West,278,16.0,22.0,33,0.00,,,0.00,911,WeatherCatV1.15B25,2013-05-25 21:36:00,
2013-05-25 14:41:00,52.5,24.2,29.90,WNW,283,11.0,28.0,33,0.00,,,0.00,909,WeatherCatV1.15B25,2013-05-25 21:41:00,
2013-05-25 14:46:00,52.0,24.5,29.90,NW,316,16.0,26.0,34,0.00,,,0.00,896,WeatherCatV1.15B25,2013-05-25 21:46:00,
2013-05-25 14:51:00,52.0,25.2,29.90,NNW,343,16.0,22.0,35,0.00,,,0.00,893,WeatherCatV1.15B25,2013-05-25 21:51:00,
2013-05-25 14:56:00,52.2,27.4,29.90,WNW,283,16.0,23.0,38,0.00,,,0.00,881,WeatherCatV1.15B25,2013-05-25 21:56:00,
2013-05-25 15:01:00,52.0,25.9,29.90,WNW,297,16.0,22.0,36,0.00,,,0.00,867,WeatherCatV1.15B25,2013-05-25 22:01:00,
2013-05-25 15:06:00,52.5,25.6,29.90,SW,219,13.0,19.0,35,0.00,,,0.00,872,WeatherCatV1.15B25,2013-05-25 22:06:00,
2013-05-25 15:11:00,52.6,25.7,29.90,NW,307,22.0,22.0,35,0.00,,,0.00,854,WeatherCatV1.15B25,2013-05-25 22:11:00,
2013-05-25 15:16:00,52.8,25.9,29.89,NW,312,12.0,22.0,35,0.00,,,0.00,847,WeatherCatV1.15B25,2013-05-25 22:16:00,
2013-05-25 15:21:00,52.9,27.3,29.89,WNW,297,22.0,22.0,37,0.00,,,0.00,837,WeatherCatV1.15B25,2013-05-25 22:21:00,
2013-05-25 15:26:00,52.6,27.1,29.89,WNW,301,19.0,25.0,37,0.00,,,0.00,826,WeatherCatV1.15B25,2013-05-25 22:26:00,
2013-05-25 15:31:00,52.8,26.6,29.89,NNW,331,13.0,23.0,36,0.00,,,0.00,814,WeatherCatV1.15B25,2013-05-25 22:31:00,
2013-05-25 15:36:00,53.1,26.2,29.89,West,264,14.0,19.0,35,0.00,,,0.00,807,WeatherCatV1.15B25,2013-05-25 22:36:00,
2013-05-25 15:41:00,53.1,26.2,29.89,WNW,293,19.0,22.0,35,0.00,,,0.00,796,WeatherCatV1.15B25,2013-05-25 22:41:00,
2013-05-25 15:46:00,52.6,26.4,29.89,NW,313,19.0,25.0,36,0.00,,,0.00,795,WeatherCatV1.15B25,2013-05-25 22:46:00,
2013-05-25 15:51:00,52.5,26.3,29.89,WNW,297,14.0,26.0,36,0.00,,,0.00,775,WeatherCatV1.15B25,2013-05-25 22:51:00,
2013-05-25 15:56:00,52.3,26.8,29.89,NW,311,8.0,21.0,37,0.00,,,0.00,759,WeatherCatV1.15B25,2013-05-25 22:56:00,
2013-05-25 16:01:00,52.8,26.6,29.89,WNW,288,15.0,16.0,36,0.00,,,0.00,747,WeatherCatV1.15B25,2013-05-25 23:01:00,
2013-05-25 16:06:00,52.9,27.3,29.89,West,274,15.0,25.0,37,0.00,,,0.00,733,WeatherCatV1.15B25,2013-05-25 23:06:00,
2013-05-25 16:11:00,52.9,27.3,29.89,West,274,13.0,23.0,37,0.00,,,0.00,717,WeatherCatV1.15B25,2013-05-25 23:11:00,
2013-05-25 16:16:00,52.9,26.0,29.88,NW,312,17.0,19.0,35,0.00,,,0.00,707,WeatherCatV1.15B25,2013-05-25 23:16:00,
2013-05-25 16:21:00,53.2,26.3,29.88,NW,315,17.0,27.0,35,0.00,,,0.00,689,WeatherCatV1.15B25,2013-05-25 23:21:00,
2013-05-25 16:26:00,52.6,25.7,29.88,West,272,16.0,25.0,35,0.00,,,0.00,679,WeatherCatV1.15B25,2013-05-25 23:26:00,
2013-05-25 16:31:00,52.6,25.7,29.88,NNW,333,21.0,24.0,35,0.00,,,0.00,668,WeatherCatV1.15B25,2013-05-25 23:31:00,
2013-05-25 16:36:00,52.5,27.0,29.88,WNW,297,14.0,17.0,37,0.00,,,0.00,661,WeatherCatV1.15B25,2013-05-25 23:36:00,
2013-05-25 16:41:00,52.5,25.6,29.88,NW,319,6.0,20.0,35,0.00,,,0.00,642,WeatherCatV1.15B25,2013-05-25 23:41:00,
2013-05-25 16:46:00,52.8,25.2,29.88,NNW,337,13.0,26.0,34,0.00,,,0.00,628,WeatherCatV1.15B25,2013-05-25 23:46:00,
2013-05-25 16:51:00,52.8,25.2,29.88,WNW,293,16.0,24.0,34,0.00,,,0.00,621,WeatherCatV1.15B25,2013-05-25 23:51:00,
2013-05-25 16:56:00,52.8,25.9,29.88,WNW,288,9.0,17.0,35,0.00,,,0.00,610,WeatherCatV1.15B25,2013-05-25 23:56:00,
2013-05-25 17:01:00,52.6,27.1,29.89,West,263,10.0,20.0,37,0.00,,,0.00,601,WeatherCatV1.15B25,2013-05-26 00:01:00,
2013-05-25 17:06:00,52.5,25.6,29.89,NW,318,18.0,23.0,35,0.00,,,0.00,577,WeatherCatV1.15B25,2013-05-26 00:06:00,
2013-05-25 17:11:00,52.2,26.7,29.89,WNW,288,15.0,16.0,37,0.00,,,0.00,564,WeatherCatV1.15B25,2013-05-26 00:11:00,
2013-05-25 17:16:00,51.9,26.5,29.88,WNW,288,16.0,19.0,37,0.00,,,0.00,540,WeatherCatV1.15B25,2013-05-26 00:16:00,
2013-05-25 17:21:00,51.7,26.9,29.88,West,278,19.0,22.0,38,0.00,,,0.00,524,WeatherCatV1.15B25,2013-05-26 00:21:00,
2013-05-25 17:26:00,51.7,26.9,29.88,WNW,293,20.0,20.0,38,0.00,,,0.00,510,WeatherCatV1.15B25,2013-05-26 00:26:00,
2013-05-25 17:31:00,51.9,27.1,29.88,West,274,14.0,21.0,38,0.00,,,0.00,490,WeatherCatV1.15B25,2013-05-26 00:31:00,
2013-05-25 17:36:00,51.9,27.1,29.88,SW,233,9.0,23.0,38,0.00,,,0.00,376,WeatherCatV1.15B25,2013-05-26 00:36:00,
2013-05-25 17:41:00,51.9,26.5,29.88,WNW,293,17.0,20.0,37,0.00,,,0.00,369,WeatherCatV1.15B25,2013-05-26 00:41:00,
2013-05-25 17:46:00,51.6,27.5,29.88,WSW,257,10.0,20.0,39,0.00,,,0.00,383,WeatherCatV1.15B25,2013-05-26 00:46:00,
2013-05-25 17:51:00,51.1,28.2,29.88,NW,315,18.0,22.0,41,0.00,,,0.00,350,WeatherCatV1.15B25,2013-05-26 00:51:00,
2013-05-25 17:56:00,50.7,28.5,29.88,WNW,299,16.0,19.0,42,0.00,,,0.00,374,WeatherCatV1.15B25,2013-05-26 00:56:00,
2013-05-25 18:01:00,50.4,28.8,29.90,West,274,11.0,17.0,43,0.00,,,0.00,323,WeatherCatV1.15B25,2013-05-26 01:01:00,
2013-05-25 18:06:00,50.2,29.1,29.90,NNW,344,11.0,18.0,44,0.00,,,0.00,250,WeatherCatV1.15B25,2013-05-26 01:06:00,
2013-05-25 18:11:00,49.8,29.3,29.90,NW,315,14.0,18.0,45,0.00,,,0.00,186,WeatherCatV1.15B25,2013-05-26 01:11:00,
2013-05-25 18:16:00,49.4,30.0,29.88,NW,312,11.0,15.0,47,0.00,,,0.00,199,WeatherCatV1.15B25,2013-05-26 01:16:00,
2013-05-25 18:21:00,49.2,30.4,29.88,NW,308,15.0,20.0,48,0.00,,,0.00,183,WeatherCatV1.15B25,2013-05-26 01:21:00,
2013-05-25 18:26:00,48.9,30.6,29.88,NW,322,15.0,19.0,49,0.00,,,0.00,206,WeatherCatV1.15B25,2013-05-26 01:26:00,
2013-05-25 18:31:00,48.8,30.5,29.89,WSW,252,12.0,19.0,49,0.00,,,0.00,144,WeatherCatV1.15B25,2013-05-26 01:31:00,
2013-05-25 18:36:00,48.5,31.7,29.89,West,279,10.0,22.0,52,0.00,,,0.00,165,WeatherCatV1.15B25,2013-05-26 01:36:00,
2013-05-25 18:41:00,48.2,31.9,29.89,NW,312,15.0,19.0,53,0.00,,,0.00,176,WeatherCatV1.15B25,2013-05-26 01:41:00,
2013-05-25 18:46:00,47.9,31.6,29.89,WSW,245,12.0,19.0,53,0.00,,,0.00,213,WeatherCatV1.15B25,2013-05-26 01:46:00,
2013-05-25 18:51:00,47.9,31.6,29.89,WNW,298,17.0,21.0,53,0.00,,,0.00,155,WeatherCatV1.15B25,2013-05-26 01:51:00,
2013-05-25 18:56:00,47.7,31.4,29.89,West,273,19.0,26.0,53,0.00,,,0.00,123,WeatherCatV1.15B25,2013-05-26 01:56:00,
2013-05-25 19:01:00,47.3,31.5,29.91,WNW,283,13.0,21.0,54,0.00,,,0.00,141,WeatherCatV1.15B25,2013-05-26 02:01:00,
2013-05-25 19:06:00,47.3,32.0,29.91,West,264,5.0,17.0,55,0.00,,,0.00,120,WeatherCatV1.15B25,2013-05-26 02:06:00,
2013-05-25 19:11:00,47.0,31.7,29.91,WSW,257,11.0,26.0,55,0.00,,,0.00,135,WeatherCatV1.15B25,2013-05-26 02:11:00,
2013-05-25 19:16:00,46.8,31.9,29.90,NW,318,14.0,20.0,56,0.00,,,0.00,74,WeatherCatV1.15B25,2013-05-26 02:16:00,
2013-05-25 19:21:00,46.4,32.0,29.90,WNW,283,9.0,20.0,57,0.00,,,0.00,90,WeatherCatV1.15B25,2013-05-26 02:21:00,
2013-05-25 19:26:00,46.1,32.2,29.90,WNW,299,13.0,17.0,58,0.00,,,0.00,142,WeatherCatV1.15B25,2013-05-26 02:26:00,
2013-05-25 19:31:00,46.1,32.2,29.90,NW,314,16.0,21.0,58,0.00,,,0.00,132,WeatherCatV1.15B25,2013-05-26 02:31:00,
2013-05-25 19:36:00,46.0,31.6,29.90,West,274,12.0,24.0,57,0.00,,,0.00,70,WeatherCatV1.15B25,2013-05-26 02:36:00,
2013-05-25 19:41:00,45.8,31.4,29.90,WNW,293,19.0,24.0,57,0.00,,,0.00,67,WeatherCatV1.15B25,2013-05-26 02:41:00,
2013-05-25 19:46:00,45.7,31.8,29.91,NW,304,16.0,20.0,58,0.00,,,0.00,46,WeatherCatV1.15B25,2013-05-26 02:46:00,
2013-05-25 19:51:00,45.4,31.9,29.91,NW,305,17.0,18.0,59,0.00,,,0.00,40,WeatherCatV1.15B25,2013-05-26 02:51:00,
2013-05-25 19:56:00,45.1,31.6,29.91,WSW,243,10.0,19.0,59,0.00,,,0.00,33,WeatherCatV1.15B25,2013-05-26 02:56:00,
2013-05-25 20:01:00,44.9,31.5,29.92,WNW,283,13.0,18.0,59,0.00,,,0.00,32,WeatherCatV1.15B25,2013-05-26 03:01:00,
2013-05-25 20:06:00,44.6,31.6,29.92,SW,235,12.0,17.0,60,0.00,,,0.00,28,WeatherCatV1.15B25,2013-05-26 03:06:00,
2013-05-25 20:11:00,44.2,31.2,29.92,WNW,293,11.0,18.0,60,0.00,,,0.00,11,WeatherCatV1.15B25,2013-05-26 03:11:00,
2013-05-25 20:16:00,43.9,31.3,29.91,West,270,17.0,22.0,61,0.00,,,0.00,5,WeatherCatV1.15B25,2013-05-26 03:16:00,
2013-05-25 20:21:00,43.6,31.5,29.91,WNW,288,13.0,21.0,62,0.00,,,0.00,0,WeatherCatV1.15B25,2013-05-26 03:21:00,
2013-05-25 20:26:00,43.3,31.6,29.91,West,272,9.0,21.0,63,0.00,,,0.00,0,WeatherCatV1.15B25,2013-05-26 03:26:00,
2013-05-25 20:31:00,42.9,31.6,29.92,WSW,256,16.0,18.0,64,0.00,,,0.00,0,WeatherCatV1.15B25,2013-05-26 03:31:00,
2013-05-25 20:36:00,42.6,31.3,29.92,NNW,327,11.0,21.0,64,0.00,,,0.00,0,WeatherCatV1.15B25,2013-05-26 03:36:00,
2013-05-25 20:41:00,42.5,31.6,29.92,WSW,253,12.0,17.0,65,0.00,,,0.00,0,WeatherCatV1.15B25,2013-05-26 03:41:00,
2013-05-25 20:46:00,42.2,31.3,29.93,WNW,301,17.0,19.0,65,0.00,,,0.00,0,WeatherCatV1.15B25,2013-05-26 03:46:00,
2013-05-25 20:51:00,42.1,31.2,29.93,NW,318,18.0,19.0,65,0.00,,,0.00,0,WeatherCatV1.15B25,2013-05-26 03:51:00,
2013-05-25 20:56:00,41.8,31.3,29.93,WNW,293,11.0,17.0,66,0.00,,,0.00,0,WeatherCatV1.15B25,2013-05-26 03:56:00,
2013-05-25 21:01:00,41.6,31.1,29.93,WNW,283,11.0,20.0,66,0.00,,,0.00,0,WeatherCatV1.15B25,2013-05-26 04:01:00,
2013-05-25 21:02:00,41.6,31.1,29.93,WNW,288,13.0,20.0,66,0.00,,,0.00,0,WeatherCatV1.15B25,2013-05-26 04:02:00,
2013-05-25 21:03:00,41.5,31.0,29.93,WNW,283,13.0,17.0,66,0.00,,,0.00,0,WeatherCatV1.15B25,2013-05-26 04:03:00,
2013-05-25 21:05:00,41.5,31.4,29.93,WNW,288,11.0,19.0,67,0.00,,,0.00,0,WeatherCatV1.15B25,2013-05-26 04:05:00,
2013-05-25 21:07:00,41.5,31.0,29.93,West,269,11.0,18.0,66,0.00,,,0.00,0,WeatherCatV1.15B25,2013-05-26 04:07:00,
2013-05-25 21:12:00,41.3,31.2,29.93,WNW,293,18.0,18.0,67,0.00,,,0.00,0,WeatherCatV1.15B25,2013-05-26 04:12:00,
2013-05-25 21:17:00,41.2,31.1,29.91,WNW,288,12.0,16.0,67,0.00,,,0.00,0,WeatherCatV1.15B25,2013-05-26 04:17:00,
2013-05-25 21:22:00,40.9,31.2,29.91,WNW,288,23.0,23.0,68,0.00,,,0.00,0,WeatherCatV1.15B25,2013-05-26 04:22:00,
2013-05-25 21:27:00,40.8,31.1,29.91,NW,306,14.0,19.0,68,0.00,,,0.00,0,WeatherCatV1.15B25,2013-05-26 04:27:00,
2013-05-25 21:32:00,40.6,31.2,29.92,WNW,303,14.0,23.0,69,0.00,,,0.00,0,WeatherCatV1.15B25,2013-05-26 04:32:00,
2013-05-25 21:37:00,40.5,31.1,29.92,NW,312,13.0,23.0,69,0.00,,,0.00,0,WeatherCatV1.15B25,2013-05-26 04:37:00,
2013-05-25 21:42:00,40.3,31.0,29.92,NW,318,15.0,24.0,69,0.00,,,0.00,0,WeatherCatV1.15B25,2013-05-26 04:42:00,
2013-05-25 21:47:00,40.2,31.2,29.93,NW,305,17.0,20.0,70,0.00,,,0.00,0,WeatherCatV1.15B25,2013-05-26 04:47:00,
2013-05-25 21:52:00,40.1,31.1,29.93,WNW,293,19.0,22.0,70,0.00,,,0.00,0,WeatherCatV1.15B25,2013-05-26 04:52:00,
2013-05-25 21:57:00,39.9,30.9,29.93,WNW,299,18.0,18.0,70,0.00,,,0.00,0,WeatherCatV1.15B25,2013-05-26 04:57:00,
2013-05-25 22:02:00,39.8,31.2,29.93,NW,307,14.0,22.0,71,0.00,,,0.00,0,WeatherCatV1.15B25,2013-05-26 05:02:00,
2013-05-25 22:07:00,39.6,31.0,29.93,WNW,299,17.0,22.0,71,0.00,,,0.00,0,WeatherCatV1.15B25,2013-05-26 05:07:00,
2013-05-25 22:12:00,39.6,31.3,29.93,WNW,288,14.0,21.0,72,0.00,,,0.00,0,WeatherCatV1.15B25,2013-05-26 05:12:00,
2013-05-25 22:17:00,39.5,31.2,29.92,WNW,303,13.0,17.0,72,0.00,,,0.00,0,WeatherCatV1.15B25,2013-05-26 05:17:00,
2013-05-25 22:22:00,39.3,31.0,29.92,WNW,300,11.0,16.0,72,0.00,,,0.00,0,WeatherCatV1.15B25,2013-05-26 05:22:00,
2013-05-25 22:27:00,39.2,30.9,29.92,NW,310,11.0,20.0,72,0.00,,,0.00,0,WeatherCatV1.15B25,2013-05-26 05:27:00,
2013-05-25 22:32:00,38.9,30.7,29.92,WNW,303,9.0,18.0,72,0.00,,,0.00,0,WeatherCatV1.15B25,2013-05-26 05:32:00,
2013-05-25 22:37:00,38.9,31.0,29.92,NW,314,12.0,15.0,73,0.00,,,0.00,0,WeatherCatV1.15B25,2013-05-26 05:37:00,
2013-05-25 22:42:00,38.6,30.7,29.92,WNW,293,13.0,17.0,73,0.00,,,0.00,0,WeatherCatV1.15B25,2013-05-26 05:42:00,
2013-05-25 22:47:00,38.6,30.7,29.92,WNW,297,18.0,18.0,73,0.00,,,0.00,0,WeatherCatV1.15B25,2013-05-26 05:47:00,
2013-05-25 22:52:00,38.5,30.6,29.92,WNW,288,13.0,16.0,73,0.00,,,0.00,0,WeatherCatV1.15B25,2013-05-26 05:52:00,
2013-05-25 22:57:00,38.5,30.3,29.92,WNW,288,12.0,15.0,72,0.00,,,0.00,0,WeatherCatV1.15B25,2013-05-26 05:57:00,
2013-05-25 23:02:00,38.5,30.3,29.92,NW,305,16.0,16.0,72,0.00,,,0.00,0,WeatherCatV1.15B25,2013-05-26 06:02:00,
2013-05-25 23:07:00,38.5,30.3,29.92,NW,304,14.0,18.0,72,0.00,,,0.00,0,WeatherCatV1.15B25,2013-05-26 06:07:00,
2013-05-25 23:12:00,38.5,29.9,29.92,WNW,303,11.0,19.0,71,0.00,,,0.00,0,WeatherCatV1.15B25,2013-05-26 06:12:00,
2013-05-25 23:17:00,38.5,29.6,29.91,WNW,298,12.0,18.0,70,0.00,,,0.00,0,WeatherCatV1.15B25,2013-05-26 06:17:00,
2013-05-25 23:22:00,38.5,29.2,29.91,WNW,293,17.0,21.0,69,0.00,,,0.00,0,WeatherCatV1.15B25,2013-05-26 06:22:00,
2013-05-25 23:27:00,38.6,29.3,29.91,WNW,299,14.0,16.0,69,0.00,,,0.00,0,WeatherCatV1.15B25,2013-05-26 06:27:00,
2013-05-25 23:32:00,38.5,28.9,29.91,WNW,303,11.0,16.0,68,0.00,,,0.00,0,WeatherCatV1.15B25,2013-05-26 06:32:00,
2013-05-25 23:37:00,38.5,28.5,29.91,NW,307,15.0,17.0,67,0.00,,,0.00,0,WeatherCatV1.15B25,2013-05-26 06:37:00,
2013-05-25 23:42:00,38.3,28.0,29.91,NW,305,15.0,20.0,66,0.00,,,0.00,0,WeatherCatV1.15B25,2013-05-26 06:42:00,
2013-05-25 23:47:00,38.3,28.0,29.92,WNW,293,11.0,16.0,66,0.00,,,0.00,0,WeatherCatV1.15B25,2013-05-26 06:47:00,
2013-05-25 23:52:00,38.3,28.0,29.92,West,272,14.0,15.0,66,0.00,,,0.00,0,WeatherCatV1.15B25,2013-05-26 06:52:00,
2013-05-25 23:57:00,38.2,27.5,29.92,WNW,300,12.0,14.0,65,0.00,,,0.00,0,WeatherCatV1.15B25,2013-05-26 06:57:00,